createdAt,value
2018-06-16T00:01:49.401Z,18.28
2018-06-16T00:04:18.088Z,18.29
2018-06-16T00:06:46.748Z,18.20
2018-06-16T00:09:15.455Z,18.27
2018-06-16T00:11:44.136Z,18.20
2018-06-16T00:14:12.833Z,18.11
2018-06-16T00:16:41.680Z,18.02
2018-06-16T00:19:10.341Z,17.99
2018-06-16T00:21:38.997Z,17.99
2018-06-16T00:24:07.693Z,17.87
2018-06-16T00:26:36.377Z,17.80
2018-06-16T00:29:05.078Z,17.84
2018-06-16T00:34:20.425Z,17.76
2018-06-16T00:36:49.096Z,17.71
2018-06-16T00:39:17.835Z,17.46
2018-06-16T00:41:46.636Z,17.40
2018-06-16T00:44:15.406Z,17.33
2018-06-16T00:46:44.060Z,17.18
2018-06-16T00:49:12.784Z,17.17
2018-06-16T00:51:41.632Z,17.12
2018-06-16T00:54:10.368Z,17.19
2018-06-16T00:56:39.433Z,17.17
2018-06-16T00:59:08.264Z,17.00
2018-06-16T01:01:36.958Z,17.10
2018-06-16T01:04:05.786Z,17.10
2018-06-16T01:06:34.639Z,17.20
2018-06-16T01:09:03.451Z,17.08
2018-06-16T01:11:32.261Z,17.10
2018-06-16T01:14:00.902Z,17.07
2018-06-16T01:16:29.654Z,17.06
2018-06-16T01:18:58.411Z,16.90
2018-06-16T01:21:27.115Z,17.09
2018-06-16T01:23:55.820Z,17.18
2018-06-16T01:26:24.623Z,17.21
2018-06-16T01:28:53.379Z,17.20
2018-06-16T01:31:22.227Z,17.02
2018-06-16T01:33:50.932Z,17.07
2018-06-16T01:36:19.644Z,17.04
2018-06-16T01:38:48.396Z,17.09
2018-06-16T01:41:17.103Z,17.11
2018-06-16T01:43:45.863Z,17.00
2018-06-16T01:46:14.654Z,16.93
2018-06-16T01:48:43.373Z,16.86
2018-06-16T01:51:12.105Z,16.88
2018-06-16T01:53:40.840Z,16.80
2018-06-16T01:56:09.599Z,16.79
2018-06-16T01:58:38.454Z,16.75
2018-06-16T02:01:07.336Z,16.65
2018-06-16T02:03:36.243Z,16.69
2018-06-16T02:06:05.061Z,16.67
2018-06-16T02:08:33.844Z,16.52
2018-06-16T02:11:02.715Z,16.56
2018-06-16T02:13:31.431Z,16.54
2018-06-16T02:16:00.193Z,16.57
2018-06-16T02:18:28.965Z,16.48
2018-06-16T02:20:57.590Z,16.56
2018-06-16T02:23:26.458Z,16.23
2018-06-16T02:25:55.236Z,16.28
2018-06-16T02:28:23.942Z,16.26
2018-06-16T02:30:52.720Z,16.33
2018-06-16T02:33:21.367Z,16.20
2018-06-16T02:35:50.172Z,16.12
2018-06-16T02:38:18.971Z,16.31
2018-06-16T02:40:48.330Z,16.28
2018-06-16T02:43:17.030Z,16.18
2018-06-16T02:45:45.858Z,16.09
2018-06-16T02:48:14.605Z,16.23
2018-06-16T02:50:43.304Z,16.14
2018-06-16T02:53:12.023Z,16.29
2018-06-16T02:55:40.902Z,16.20
2018-06-16T02:58:09.694Z,16.20
2018-06-16T03:00:38.407Z,16.08
2018-06-16T03:03:07.164Z,16.04
2018-06-16T03:05:35.908Z,15.98
2018-06-16T03:08:04.835Z,15.98
2018-06-16T03:10:33.594Z,16.20
2018-06-16T03:13:02.363Z,16.00
2018-06-16T03:15:31.209Z,15.99
2018-06-16T03:18:00.024Z,16.10
2018-06-16T03:20:28.849Z,15.95
2018-06-16T03:22:57.542Z,16.06
2018-06-16T03:25:26.316Z,15.84
2018-06-16T03:27:55.044Z,16.15
2018-06-16T03:30:23.786Z,16.14
2018-06-16T03:32:52.583Z,16.00
2018-06-16T03:35:21.386Z,16.01
2018-06-16T03:37:50.306Z,16.01
2018-06-16T03:40:19.121Z,16.16
2018-06-16T03:42:47.902Z,16.11
2018-06-16T03:45:16.776Z,16.05
2018-06-16T03:47:45.458Z,16.03
2018-06-16T03:50:14.190Z,15.99
2018-06-16T03:52:43.009Z,15.99
2018-06-16T03:55:11.675Z,15.94
2018-06-16T03:57:40.501Z,16.06
2018-06-16T04:00:09.365Z,16.06
2018-06-16T04:02:38.101Z,16.11
2018-06-16T04:05:06.745Z,16.25
2018-06-16T04:07:35.456Z,16.25
2018-06-16T04:10:04.298Z,16.15
2018-06-16T04:12:32.925Z,16.36
2018-06-16T04:15:01.751Z,16.39
2018-06-16T04:17:30.405Z,16.30
2018-06-16T04:19:59.423Z,16.48
2018-06-16T04:22:28.108Z,16.45
2018-06-16T04:24:56.818Z,16.72
2018-06-16T04:27:25.578Z,16.81
2018-06-16T04:29:54.328Z,16.84
2018-06-16T04:32:23.003Z,16.75
2018-06-16T04:34:51.684Z,16.98
2018-06-16T04:37:20.386Z,17.03
2018-06-16T04:39:49.113Z,16.98
2018-06-16T04:42:17.825Z,17.09
2018-06-16T04:44:46.558Z,17.22
2018-06-16T04:47:15.462Z,17.17
2018-06-16T04:49:44.199Z,17.21
2018-06-16T04:52:12.926Z,17.43
2018-06-16T04:54:41.624Z,17.39
2018-06-16T04:57:10.281Z,17.22
2018-06-16T04:59:38.993Z,17.62
2018-06-16T05:02:07.822Z,17.87
2018-06-16T05:04:36.582Z,17.88
2018-06-16T05:07:05.388Z,18.12
2018-06-16T05:09:34.108Z,18.32
2018-06-16T05:12:02.939Z,18.24
2018-06-16T05:14:31.928Z,18.52
2018-06-16T05:17:00.899Z,18.69
2018-06-16T05:19:29.623Z,18.75
2018-06-16T05:21:58.407Z,19.03
2018-06-16T05:24:27.398Z,19.20
2018-06-16T05:26:56.514Z,19.35
2018-06-16T05:29:25.269Z,19.32
2018-06-16T05:31:53.958Z,19.31
2018-06-16T05:34:22.999Z,19.36
2018-06-16T05:36:51.840Z,19.29
2018-06-16T05:48:07.908Z,19.51
2018-06-16T05:50:36.647Z,19.80
2018-06-16T05:53:05.443Z,19.96
2018-06-16T05:55:34.313Z,19.85
2018-06-16T05:58:03.379Z,20.08
2018-06-16T06:00:32.453Z,20.36
2018-06-16T06:03:01.287Z,20.39
2018-06-16T06:05:30.295Z,19.96
2018-06-16T06:07:59.364Z,20.14
2018-06-16T06:10:28.281Z,20.32
2018-06-16T06:12:57.100Z,20.54
2018-06-16T06:15:25.832Z,21.00
2018-06-16T06:17:54.775Z,20.85
2018-06-16T06:20:23.535Z,21.24
2018-06-16T06:22:52.355Z,21.28
2018-06-16T06:25:21.152Z,21.50
2018-06-16T06:27:49.918Z,21.09
2018-06-16T06:30:18.688Z,21.84
2018-06-16T06:32:47.491Z,21.81
2018-06-16T06:35:16.404Z,21.98
2018-06-16T06:37:45.190Z,22.24
2018-06-16T06:40:14.103Z,22.25
2018-06-16T06:42:44.957Z,22.05
2018-06-16T06:45:13.801Z,22.20
2018-06-16T06:47:42.757Z,22.31
2018-06-16T06:50:11.816Z,22.30
2018-06-16T06:52:40.596Z,22.62
2018-06-16T06:55:09.293Z,23.09
2018-06-16T06:57:38.330Z,23.32
2018-06-16T07:00:07.282Z,23.64
2018-06-16T07:02:35.972Z,23.46
2018-06-16T07:05:04.593Z,24.15
2018-06-16T07:07:33.362Z,24.13
2018-06-16T07:10:02.053Z,24.05
2018-06-16T07:12:30.808Z,24.48
2018-06-16T07:14:59.760Z,24.34
2018-06-16T07:17:28.684Z,24.46
2018-06-16T07:19:57.327Z,24.57
2018-06-16T07:22:26.070Z,25.10
2018-06-16T07:24:54.920Z,25.23
2018-06-16T07:27:23.819Z,25.36
2018-06-16T07:29:52.621Z,25.45
2018-06-16T07:32:21.453Z,25.48
2018-06-16T07:34:50.425Z,25.32
2018-06-16T07:37:19.254Z,25.55
2018-06-16T07:39:48.016Z,25.99
2018-06-16T07:42:16.849Z,25.82
2018-06-16T07:44:45.559Z,26.05
2018-06-16T07:47:14.491Z,25.98
2018-06-16T07:49:43.170Z,26.04
2018-06-16T07:52:11.905Z,26.07
2018-06-16T07:54:40.593Z,25.87
2018-06-16T07:57:09.694Z,26.28
2018-06-16T07:59:38.450Z,26.41
2018-06-16T08:02:07.848Z,26.26
2018-06-16T08:04:36.716Z,25.87
2018-06-16T08:07:05.548Z,26.00
2018-06-16T08:09:35.708Z,26.52
2018-06-16T08:12:04.924Z,26.25
2018-06-16T08:14:33.603Z,26.25
2018-06-16T08:17:02.541Z,26.57
2018-06-16T08:19:31.429Z,25.91
2018-06-16T08:22:00.182Z,26.23
2018-06-16T08:24:29.076Z,26.52
2018-06-16T08:26:57.838Z,26.88
2018-06-16T08:29:26.683Z,27.03
2018-06-16T08:31:55.664Z,26.74
2018-06-16T08:34:24.594Z,27.19
2018-06-16T08:36:53.340Z,27.12
2018-06-16T08:39:22.162Z,27.16
2018-06-16T08:41:50.951Z,26.83
2018-06-16T08:44:19.932Z,27.16
2018-06-16T08:46:48.641Z,27.13
2018-06-16T08:49:17.415Z,27.51
2018-06-16T08:51:46.325Z,27.23
2018-06-16T08:54:15.065Z,27.34
2018-06-16T08:56:43.824Z,27.49
2018-06-16T08:59:12.598Z,27.66
2018-06-16T09:01:41.477Z,27.70
2018-06-16T09:04:10.218Z,27.64
2018-06-16T09:06:38.965Z,27.78
2018-06-16T09:09:08.793Z,27.68
2018-06-16T09:11:37.611Z,27.85
2018-06-16T09:14:06.308Z,27.48
2018-06-16T09:16:35.365Z,27.39
2018-06-16T09:19:04.251Z,27.74
2018-06-16T09:21:33.054Z,28.63
2018-06-16T09:24:01.706Z,28.49
2018-06-16T09:26:30.671Z,28.16
2018-06-16T09:28:59.450Z,28.64
2018-06-16T09:31:28.214Z,28.40
2018-06-16T09:33:56.995Z,28.69
2018-06-16T09:36:25.693Z,29.45
2018-06-16T09:38:54.404Z,29.20
2018-06-16T09:41:25.267Z,29.14
2018-06-16T09:43:54.225Z,29.28
2018-06-16T09:46:22.883Z,29.40
2018-06-16T09:48:51.586Z,29.20
2018-06-16T09:51:20.434Z,29.34
2018-06-16T09:53:49.177Z,29.29
2018-06-16T09:56:17.922Z,29.52
2018-06-16T09:58:46.589Z,30.03
2018-06-16T10:01:15.809Z,29.40
2018-06-16T10:03:44.602Z,30.25
2018-06-16T10:06:13.489Z,30.01
2018-06-16T10:08:42.214Z,30.44
2018-06-16T10:11:11.288Z,30.63
2018-06-16T10:13:40.345Z,29.89
2018-06-16T10:16:09.166Z,30.63
2018-06-16T10:18:37.814Z,30.37
2018-06-16T10:21:06.469Z,31.10
2018-06-16T10:23:35.445Z,30.92
2018-06-16T10:26:04.324Z,30.78
2018-06-16T10:28:33.088Z,30.96
2018-06-16T10:31:01.784Z,31.13
2018-06-16T10:33:30.824Z,30.85
2018-06-16T10:35:59.631Z,31.00
2018-06-16T10:38:28.485Z,31.11
2018-06-16T10:40:57.283Z,31.26
2018-06-16T10:43:26.086Z,31.71
2018-06-16T10:45:54.866Z,31.40
2018-06-16T10:48:23.726Z,31.48
2018-06-16T10:50:52.360Z,31.18
2018-06-16T10:53:21.176Z,31.76
2018-06-16T10:55:49.823Z,31.55
2018-06-16T10:58:18.493Z,31.91
2018-06-16T11:00:47.199Z,31.33
2018-06-16T11:03:15.966Z,31.74
2018-06-16T11:05:44.925Z,31.45
2018-06-16T11:08:13.630Z,31.51
2018-06-16T11:10:42.470Z,31.91
2018-06-16T11:13:11.445Z,31.68
2018-06-16T11:15:40.204Z,31.62
2018-06-16T11:18:08.910Z,31.32
2018-06-16T11:20:37.806Z,32.24
2018-06-16T11:23:06.519Z,31.44
2018-06-16T11:25:35.745Z,31.67
2018-06-16T11:28:04.571Z,31.54
2018-06-16T11:30:33.486Z,31.30
2018-06-16T11:33:04.036Z,30.64
2018-06-16T11:35:33.292Z,31.00
2018-06-16T11:38:01.914Z,31.64
2018-06-16T11:40:30.599Z,31.91
2018-06-16T11:42:59.400Z,31.97
2018-06-16T11:45:31.449Z,31.70
2018-06-16T11:48:00.254Z,30.87
2018-06-16T11:50:29.483Z,31.37
2018-06-16T11:52:58.257Z,32.49
2018-06-16T11:55:27.194Z,32.75
2018-06-16T11:57:55.905Z,34.17
2018-06-16T12:00:24.840Z,34.65
2018-06-16T12:02:53.671Z,36.36
2018-06-16T12:08:19.338Z,38.80
2018-06-16T12:10:48.358Z,37.25
2018-06-16T12:13:16.991Z,37.05
2018-06-16T12:15:45.689Z,38.28
2018-06-16T12:18:14.503Z,39.94
2018-06-16T12:20:43.643Z,40.83
2018-06-16T12:23:12.534Z,40.88
2018-06-16T12:25:41.251Z,37.56
2018-06-16T12:28:10.157Z,36.52
2018-06-16T12:30:39.055Z,36.96
2018-06-16T12:33:07.866Z,39.41
2018-06-16T12:35:36.594Z,41.24
2018-06-16T12:38:05.512Z,42.46
2018-06-16T12:40:34.244Z,43.46
2018-06-16T12:43:02.962Z,44.77
2018-06-16T12:45:31.850Z,43.71
2018-06-16T12:48:00.670Z,43.30
2018-06-16T12:50:29.523Z,43.46
2018-06-16T12:52:58.452Z,41.94
2018-06-16T12:55:27.234Z,40.79
2018-06-16T12:57:56.199Z,40.54
2018-06-16T13:00:25.014Z,41.15
2018-06-16T13:02:54.857Z,41.86
2018-06-16T13:05:23.670Z,43.35
2018-06-16T13:07:52.670Z,42.22
2018-06-16T13:10:21.560Z,42.33
2018-06-16T13:12:50.244Z,42.04
2018-06-16T13:15:19.246Z,40.56
2018-06-16T13:17:48.103Z,40.45
2018-06-16T13:20:16.945Z,41.42
2018-06-16T13:22:45.846Z,40.95
2018-06-16T13:25:14.593Z,42.84
2018-06-16T13:27:43.375Z,41.71
2018-06-16T13:30:12.155Z,43.10
2018-06-16T13:32:40.907Z,42.25
2018-06-16T13:35:09.627Z,41.38
2018-06-16T13:37:38.394Z,38.81
2018-06-16T13:40:07.253Z,38.10
2018-06-16T13:42:36.079Z,35.72
2018-06-16T13:45:04.899Z,36.45
2018-06-16T13:47:33.805Z,36.93
2018-06-16T13:50:02.479Z,40.03
2018-06-16T13:52:31.358Z,39.32
2018-06-16T13:55:00.231Z,37.21
2018-06-16T13:57:28.992Z,37.42
2018-06-16T13:59:57.851Z,37.09
2018-06-16T14:02:26.762Z,37.08
2018-06-16T14:04:55.528Z,36.96
2018-06-16T14:07:24.263Z,37.00
2018-06-16T14:09:53.096Z,37.42
2018-06-16T14:12:21.755Z,37.01
2018-06-16T14:14:50.658Z,37.12
2018-06-16T14:17:19.260Z,37.29
2018-06-16T14:19:48.113Z,37.26
2018-06-16T14:22:16.897Z,37.97
2018-06-16T14:24:45.615Z,37.00
2018-06-16T14:27:14.436Z,36.29
2018-06-16T14:29:43.616Z,36.46
2018-06-16T14:32:12.561Z,36.35
2018-06-16T14:34:41.170Z,36.08
2018-06-16T14:37:10.091Z,36.12
2018-06-16T14:39:38.843Z,35.77
2018-06-16T14:42:07.568Z,35.38
2018-06-16T14:44:36.383Z,35.60
2018-06-16T14:47:05.102Z,35.63
2018-06-16T14:49:34.002Z,35.97
2018-06-16T14:52:02.741Z,35.73
2018-06-16T14:54:31.502Z,36.34
2018-06-16T14:57:00.319Z,35.99
2018-06-16T14:59:29.057Z,34.64
2018-06-16T15:01:57.886Z,35.69
2018-06-16T15:04:26.777Z,35.71
2018-06-16T15:06:55.390Z,35.09
2018-06-16T15:09:24.314Z,34.80
2018-06-16T15:11:53.269Z,35.08
2018-06-16T15:14:21.989Z,34.73
2018-06-16T15:16:50.593Z,35.27
2018-06-16T15:19:19.256Z,35.61
2018-06-16T15:21:47.936Z,37.12
2018-06-16T15:24:16.630Z,37.57
2018-06-16T15:26:45.335Z,39.58
2018-06-16T15:29:14.753Z,40.94
2018-06-16T15:31:43.518Z,41.34
2018-06-16T15:34:12.465Z,42.50
2018-06-16T15:36:41.207Z,41.83
2018-06-16T15:39:11.013Z,42.78
2018-06-16T15:41:39.766Z,43.39
2018-06-16T15:44:08.469Z,44.29
2018-06-16T15:46:37.256Z,43.62
2018-06-16T15:49:06.030Z,44.11
2018-06-16T15:51:35.021Z,44.29
2018-06-16T15:54:03.783Z,43.05
2018-06-16T15:56:32.674Z,42.63
2018-06-16T15:59:01.312Z,41.11
2018-06-16T16:01:30.143Z,42.05
2018-06-16T16:03:58.875Z,43.36
2018-06-16T16:06:27.706Z,44.19
2018-06-16T16:08:57.217Z,43.55
2018-06-16T16:11:26.152Z,44.71
2018-06-16T16:13:54.929Z,44.82
2018-06-16T16:16:23.772Z,44.82
2018-06-16T16:18:52.503Z,44.82
2018-06-16T16:21:21.263Z,42.98
2018-06-16T16:23:49.988Z,42.37
2018-06-16T16:26:18.727Z,42.68
2018-06-16T16:28:47.588Z,43.47
2018-06-16T16:31:16.435Z,44.43
2018-06-16T16:33:45.180Z,43.44
2018-06-16T16:36:14.154Z,42.45
2018-06-16T16:38:43.131Z,43.98
2018-06-16T16:41:11.881Z,44.26
2018-06-16T16:43:40.688Z,43.35
2018-06-16T16:46:09.457Z,43.96
2018-06-16T16:48:38.143Z,43.69
2018-06-16T16:51:07.014Z,44.17
2018-06-16T16:53:35.719Z,44.87
2018-06-16T16:56:04.482Z,44.27
2018-06-16T16:58:33.279Z,42.02
2018-06-16T17:01:02.007Z,41.89
2018-06-16T17:03:31.090Z,40.92
2018-06-16T17:05:59.858Z,41.55
2018-06-16T17:08:28.698Z,41.83
2018-06-16T17:10:57.581Z,41.73
2018-06-16T17:13:26.395Z,40.72
2018-06-16T17:15:55.239Z,40.98
2018-06-16T17:18:23.972Z,40.87
2018-06-16T17:20:52.757Z,39.02
2018-06-16T17:23:21.722Z,39.06
2018-06-16T17:25:50.648Z,38.68
2018-06-16T17:28:19.433Z,38.26
2018-06-16T17:30:48.216Z,38.88
2018-06-16T17:33:17.105Z,37.41
2018-06-16T17:35:45.922Z,36.59
2018-06-16T17:38:14.739Z,35.84
2018-06-16T17:40:43.631Z,35.07
2018-06-16T17:43:12.651Z,34.46
2018-06-16T17:45:41.383Z,33.51
2018-06-16T17:48:10.169Z,32.85
2018-06-16T17:50:38.893Z,32.31
2018-06-16T17:53:07.758Z,31.78
2018-06-16T17:55:36.889Z,31.52
2018-06-16T17:58:05.712Z,31.15
2018-06-16T18:00:34.412Z,30.95
2018-06-16T18:03:03.341Z,30.91
2018-06-16T18:05:32.237Z,30.68
2018-06-16T18:08:01.303Z,30.40
2018-06-16T18:10:30.191Z,30.18
2018-06-16T18:12:59.147Z,29.98
2018-06-16T18:15:27.931Z,29.22
2018-06-16T18:17:58.056Z,29.46
2018-06-16T18:20:26.850Z,29.16
2018-06-16T18:22:55.497Z,28.89
2018-06-16T18:25:24.433Z,28.84
2018-06-16T18:27:53.223Z,28.68
2018-06-16T18:30:23.190Z,28.75
2018-06-16T18:32:51.978Z,28.58
2018-06-16T18:35:20.847Z,28.52
2018-06-16T18:37:49.576Z,28.62
2018-06-16T18:40:18.391Z,28.64
2018-06-16T18:42:47.259Z,28.43
2018-06-16T18:45:16.157Z,28.46
2018-06-16T18:47:45.058Z,28.42
2018-06-16T18:50:13.958Z,28.42
2018-06-16T18:52:42.641Z,28.40
2018-06-16T18:55:11.387Z,28.27
2018-06-16T18:57:40.395Z,27.91
2018-06-16T19:00:09.227Z,27.80
2018-06-16T19:02:38.021Z,28.06
2018-06-16T19:05:06.915Z,27.97
2018-06-16T19:07:35.676Z,28.09
2018-06-16T19:10:04.607Z,27.65
2018-06-16T19:12:33.336Z,27.21
2018-06-16T19:15:02.138Z,27.00
2018-06-16T19:17:30.967Z,26.66
2018-06-16T19:19:59.706Z,26.52
2018-06-16T19:22:48.937Z,26.26
2018-06-16T19:25:22.029Z,26.10
2018-06-16T19:27:54.905Z,25.91
2018-06-16T19:31:48.311Z,25.69
2018-06-16T19:34:17.215Z,25.44
2018-06-16T19:36:46.009Z,25.28
2018-06-16T19:39:14.817Z,25.23
2018-06-16T19:41:43.498Z,25.12
2018-06-16T19:44:12.390Z,24.96
2018-06-16T19:46:41.047Z,24.82
2018-06-16T19:49:10.125Z,24.75
2018-06-16T19:51:46.296Z,24.67
2018-06-16T19:54:15.160Z,24.60
2018-06-16T19:56:44.031Z,24.53
2018-06-16T19:59:12.963Z,24.51
2018-06-16T20:01:41.802Z,24.38
2018-06-16T20:04:10.592Z,24.43
2018-06-16T20:06:39.568Z,24.59
2018-06-16T20:09:08.807Z,24.68
2018-06-16T20:11:39.030Z,24.59
2018-06-16T20:14:07.873Z,24.57
2018-06-16T20:16:37.346Z,24.59
2018-06-16T20:19:06.230Z,24.67
2018-06-16T20:21:34.889Z,24.63
2018-06-16T20:24:03.710Z,24.70
2018-06-16T20:26:32.595Z,24.70
2018-06-16T20:29:01.228Z,24.74
2018-06-16T20:31:30.029Z,24.76
2018-06-16T20:33:58.816Z,24.70
2018-06-16T20:36:27.597Z,24.69
2018-06-16T20:38:56.403Z,24.68
2018-06-16T20:41:25.130Z,24.52
2018-06-16T20:43:53.914Z,24.58
2018-06-16T20:46:22.733Z,24.52
2018-06-16T20:48:51.605Z,24.20
2018-06-16T20:51:20.520Z,24.28
2018-06-16T20:53:49.806Z,24.42
2018-06-16T20:56:18.595Z,24.34
2018-06-16T20:58:47.537Z,24.44
2018-06-16T21:01:16.345Z,24.41
2018-06-16T21:03:45.383Z,24.44
2018-06-16T21:06:14.188Z,24.42
2018-06-16T21:08:43.003Z,24.39
2018-06-16T21:11:11.859Z,24.31
2018-06-16T21:13:40.680Z,24.30
2018-06-16T21:16:09.560Z,24.13
2018-06-16T21:18:38.380Z,24.12
2018-06-16T21:21:07.181Z,24.15
2018-06-16T21:23:35.946Z,24.05
2018-06-16T21:26:04.799Z,23.96
2018-06-16T21:28:33.609Z,23.80
2018-06-16T21:31:02.371Z,23.69
2018-06-16T21:33:31.185Z,23.57
2018-06-16T21:35:59.908Z,23.56
2018-06-16T21:38:28.762Z,23.40
2018-06-16T21:40:57.786Z,23.36
2018-06-16T21:43:26.520Z,23.16
2018-06-16T21:45:55.343Z,23.00
2018-06-16T21:48:24.140Z,22.86
2018-06-16T21:50:52.795Z,22.80
2018-06-16T21:53:21.683Z,22.79
2018-06-16T21:55:50.480Z,22.60
2018-06-16T21:58:19.278Z,22.47
2018-06-16T22:00:48.474Z,22.37
2018-06-16T22:03:17.153Z,22.29
2018-06-16T22:05:46.011Z,22.15
2018-06-16T22:08:21.434Z,22.07
2018-06-16T22:10:50.260Z,22.08
2018-06-16T22:13:19.076Z,22.12
2018-06-16T22:15:47.891Z,22.15
2018-06-16T22:18:16.627Z,22.04
2018-06-16T22:20:45.414Z,22.02
2018-06-16T22:23:14.194Z,22.05
2018-06-16T22:25:42.901Z,21.97
2018-06-16T22:28:11.685Z,21.92
2018-06-16T22:30:40.441Z,21.93
2018-06-16T22:33:09.119Z,21.92
2018-06-16T22:35:38.085Z,21.86
2018-06-16T22:38:07.019Z,21.93
2018-06-16T22:40:35.792Z,22.10
2018-06-16T22:43:04.519Z,21.86
2018-06-16T22:45:33.299Z,21.95
2018-06-16T22:48:02.264Z,21.88
2018-06-16T22:50:32.795Z,21.78
2018-06-16T22:53:01.640Z,21.80
2018-06-16T22:55:30.333Z,21.96
2018-06-16T22:57:59.304Z,21.92
2018-06-16T23:00:29.414Z,21.94
2018-06-16T23:02:59.153Z,21.90
2018-06-16T23:05:28.022Z,21.98
2018-06-16T23:07:57.082Z,21.95
2018-06-16T23:10:26.005Z,22.03
2018-06-16T23:12:54.805Z,21.97
2018-06-16T23:15:23.577Z,22.10
2018-06-16T23:17:52.390Z,22.02
2018-06-16T23:20:21.085Z,21.95
2018-06-16T23:22:49.909Z,21.72
2018-06-16T23:25:18.760Z,22.03
2018-06-16T23:27:47.650Z,22.06
2018-06-16T23:30:16.398Z,22.04
2018-06-16T23:32:45.062Z,22.28
2018-06-16T23:35:15.027Z,22.31
2018-06-16T23:37:43.812Z,22.22
2018-06-16T23:40:12.640Z,22.19
2018-06-16T23:42:41.605Z,22.05
2018-06-16T23:45:10.359Z,22.14
2018-06-16T23:47:39.185Z,21.80
2018-06-16T23:50:08.191Z,21.64
2018-06-16T23:52:37.056Z,21.72
2018-06-16T23:55:05.894Z,21.41
2018-06-16T23:57:34.683Z,21.39
